createdAt,value
2019-01-29T00:01:29.674Z,98796.51
2019-01-29T00:03:58.854Z,98921.14
2019-01-29T00:06:28.067Z,98927.13
2019-01-29T00:08:57.294Z,98924.55
2019-01-29T00:11:27.833Z,98924.13
2019-01-29T00:13:57.047Z,98922.84
2019-01-29T00:16:26.355Z,98931.02
2019-01-29T00:18:55.628Z,98925.33
2019-01-29T00:21:24.838Z,98932.21
2019-01-29T00:23:54.080Z,98938.67
2019-01-29T00:26:23.258Z,98929.99
2019-01-29T00:28:52.463Z,98935.11
2019-01-29T00:31:21.730Z,98933.77
2019-01-29T00:33:51.015Z,98934.65
2019-01-29T00:36:20.217Z,98938.48
2019-01-29T00:38:49.493Z,98940.23
2019-01-29T00:41:18.712Z,98935.43
2019-01-29T00:43:48.148Z,98944.02
2019-01-29T00:46:17.590Z,98942.30
2019-01-29T00:48:46.772Z,98938.84
2019-01-29T00:51:16.068Z,98945.77
2019-01-29T00:53:45.318Z,98943.09
2019-01-29T00:56:14.564Z,98954.25
2019-01-29T00:58:43.752Z,98947.74
2019-01-29T01:01:13.016Z,98940.82
2019-01-29T01:03:42.239Z,98943.87
2019-01-29T01:06:11.444Z,98939.06
2019-01-29T01:08:40.693Z,98950.70
2019-01-29T01:11:09.899Z,98945.94
2019-01-29T01:13:39.107Z,98946.77
2019-01-29T01:16:08.348Z,98943.67
2019-01-29T01:18:37.560Z,98943.63
2019-01-29T01:21:06.757Z,98817.61
2019-01-29T01:23:36.111Z,98953.91
2019-01-29T01:26:05.239Z,98962.08
2019-01-29T01:28:34.439Z,98952.94
2019-01-29T01:31:03.696Z,98958.52
2019-01-29T01:33:32.994Z,98954.59
2019-01-29T01:36:02.194Z,98962.75
2019-01-29T01:38:31.494Z,98962.34
2019-01-29T01:41:00.695Z,98964.83
2019-01-29T01:43:30.053Z,98965.66
2019-01-29T01:45:59.382Z,98963.06
2019-01-29T01:48:28.573Z,98968.55
2019-01-29T01:50:57.787Z,98963.44
2019-01-29T01:53:27.157Z,98967.72
2019-01-29T01:55:56.348Z,98973.25
2019-01-29T01:58:25.531Z,98969.78
2019-01-29T02:00:54.768Z,98965.81
2019-01-29T02:03:23.959Z,98969.27
2019-01-29T02:05:53.162Z,98971.39
2019-01-29T02:08:22.535Z,98967.05
2019-01-29T02:10:51.730Z,98971.34
2019-01-29T02:13:20.946Z,98974.80
2019-01-29T02:15:50.211Z,98955.75
2019-01-29T02:18:19.416Z,98974.65
2019-01-29T02:20:48.687Z,98982.40
2019-01-29T02:23:17.935Z,98989.69
2019-01-29T02:25:47.137Z,98986.22
2019-01-29T02:28:16.325Z,98987.82
2019-01-29T02:30:45.584Z,98987.36
2019-01-29T02:33:14.821Z,98993.86
2019-01-29T02:35:44.004Z,98992.58
2019-01-29T02:38:13.230Z,99000.73
2019-01-29T02:40:42.438Z,99000.73
2019-01-29T02:43:11.677Z,99000.27
2019-01-29T02:45:40.965Z,99001.56
2019-01-29T02:48:10.364Z,99001.61
2019-01-29T02:50:39.542Z,99000.73
2019-01-29T02:53:17.762Z,98999.39
2019-01-29T02:55:39.779Z,99003.27
2019-01-29T02:58:08.995Z,99003.21
2019-01-29T03:00:38.721Z,99011.42
2019-01-29T03:03:07.920Z,99008.43
2019-01-29T03:05:37.113Z,99008.89
2019-01-29T03:08:06.384Z,99014.99
2019-01-29T03:10:35.579Z,99020.20
2019-01-29T03:13:04.917Z,99017.58
2019-01-29T03:15:34.297Z,99010.70
2019-01-29T03:18:03.593Z,99020.20
2019-01-29T03:20:32.847Z,99022.33
2019-01-29T03:23:02.038Z,99016.34
2019-01-29T03:25:31.374Z,99024.55
2019-01-29T03:28:00.549Z,99025.78
2019-01-29T03:30:29.761Z,99026.66
2019-01-29T03:32:58.942Z,99020.63
2019-01-29T03:35:28.123Z,99025.37
2019-01-29T03:37:57.392Z,99030.12
2019-01-29T03:40:27.341Z,99027.48
2019-01-29T03:42:56.557Z,99030.44
2019-01-29T03:45:25.766Z,99030.48
2019-01-29T03:47:56.081Z,99031.36
2019-01-29T03:50:25.584Z,99036.53
2019-01-29T03:52:54.985Z,99042.16
2019-01-29T03:55:24.174Z,99042.58
2019-01-29T03:57:53.530Z,99040.77
2019-01-29T04:00:27.637Z,99037.30
2019-01-29T04:02:57.199Z,99039.06
2019-01-29T04:05:26.422Z,99054.61
2019-01-29T04:07:57.980Z,99048.16
2019-01-29T04:10:27.203Z,99053.32
2019-01-29T04:12:56.404Z,99055.08
2019-01-29T04:15:26.300Z,99058.53
2019-01-29T04:17:57.667Z,99063.65
2019-01-29T04:20:27.157Z,99061.53
2019-01-29T04:22:56.397Z,99058.95
2019-01-29T04:25:25.592Z,99062.00
2019-01-29T04:27:54.823Z,99056.42
2019-01-29T04:30:24.765Z,99058.13
2019-01-29T04:32:53.959Z,99058.59
2019-01-29T04:35:23.157Z,99061.17
2019-01-29T04:37:52.431Z,99057.30
2019-01-29T04:40:21.676Z,99056.94
2019-01-29T04:42:50.874Z,99048.72
2019-01-29T04:45:20.214Z,99047.08
2019-01-29T04:47:49.409Z,99046.61
2019-01-29T04:50:20.817Z,99047.48
2019-01-29T04:52:50.207Z,99047.95
2019-01-29T04:55:19.437Z,99048.36
2019-01-29T04:57:48.678Z,99050.07
2019-01-29T05:00:23.753Z,99056.16
2019-01-29T05:02:52.945Z,99054.88
2019-01-29T05:05:22.448Z,99050.17
2019-01-29T05:07:51.747Z,99049.24
2019-01-29T05:10:21.053Z,99055.64
2019-01-29T05:12:50.258Z,99052.55
2019-01-29T05:15:20.579Z,99055.54
2019-01-29T05:17:49.879Z,99058.07
2019-01-29T05:20:21.000Z,99055.08
2019-01-29T05:22:50.765Z,99052.03
2019-01-29T05:25:20.299Z,99048.62
2019-01-29T05:27:49.711Z,99052.08
2019-01-29T05:30:23.759Z,99057.19
2019-01-29T05:32:53.474Z,99044.69
2019-01-29T05:35:22.953Z,99057.14
2019-01-29T05:37:52.238Z,99057.50
2019-01-29T05:40:22.765Z,99060.13
2019-01-29T05:42:52.116Z,99057.09
2019-01-29T05:45:23.367Z,99055.33
2019-01-29T05:47:52.574Z,99057.50
2019-01-29T05:50:21.774Z,99053.57
2019-01-29T05:52:51.209Z,99061.31
2019-01-29T05:55:20.430Z,99056.16
2019-01-29T05:57:49.631Z,99054.86
2019-01-29T06:00:26.561Z,99058.73
2019-01-29T06:02:56.003Z,99062.66
2019-01-29T06:05:27.437Z,99066.95
2019-01-29T06:07:56.834Z,99071.65
2019-01-29T06:10:26.036Z,99077.17
2019-01-29T06:12:55.233Z,99079.70
2019-01-29T06:15:24.555Z,99089.09
2019-01-29T06:17:53.764Z,99090.80
2019-01-29T06:20:24.794Z,99087.75
2019-01-29T06:22:54.195Z,99089.04
2019-01-29T06:25:23.390Z,99092.86
2019-01-29T06:27:54.026Z,99093.68
2019-01-29T06:30:23.920Z,99097.14
2019-01-29T06:32:53.195Z,99096.67
2019-01-29T06:35:22.582Z,99096.67
2019-01-29T06:37:51.926Z,99093.68
2019-01-29T06:40:23.060Z,99094.92
2019-01-29T06:42:52.490Z,99099.67
2019-01-29T06:45:22.112Z,99105.71
2019-01-29T06:47:51.441Z,99108.70
2019-01-29T06:50:22.617Z,99116.51
2019-01-29T06:52:52.120Z,99120.84
2019-01-29T06:55:22.166Z,99113.62
2019-01-29T06:57:55.684Z,99116.73
2019-01-29T07:00:24.773Z,99116.73
2019-01-29T07:02:53.972Z,99118.48
2019-01-29T07:05:23.431Z,99120.72
2019-01-29T07:07:52.685Z,99124.23
2019-01-29T07:10:22.035Z,99121.12
2019-01-29T07:12:51.363Z,99131.56
2019-01-29T07:15:40.297Z,99127.28
2019-01-29T07:18:32.186Z,99131.63
2019-01-29T07:21:03.325Z,99137.67
2019-01-29T07:23:33.441Z,99144.06
2019-01-29T07:26:02.659Z,99147.13
2019-01-29T07:28:31.886Z,99138.08
2019-01-29T07:31:01.132Z,99138.55
2019-01-29T07:33:30.324Z,99137.61
2019-01-29T07:35:59.794Z,99144.53
2019-01-29T07:38:28.989Z,99151.11
2019-01-29T07:40:58.191Z,99153.58
2019-01-29T07:43:27.406Z,99155.75
2019-01-29T07:45:57.995Z,99149.70
2019-01-29T07:48:27.188Z,99149.29
2019-01-29T07:50:56.430Z,99147.53
2019-01-29T07:53:26.126Z,99147.83
2019-01-29T07:55:55.423Z,99157.28
2019-01-29T07:58:24.652Z,99165.14
2019-01-29T08:00:53.870Z,99159.62
2019-01-29T08:03:23.093Z,99164.48
2019-01-29T08:05:52.357Z,99166.30
2019-01-29T08:08:21.626Z,99168.48
2019-01-29T08:10:50.846Z,99172.81
2019-01-29T08:13:20.091Z,99170.76
2019-01-29T08:15:49.286Z,99173.40
2019-01-29T08:18:20.542Z,99171.75
2019-01-29T08:20:49.985Z,99174.44
2019-01-29T08:23:19.183Z,99173.27
2019-01-29T08:25:48.364Z,99164.27
2019-01-29T08:28:17.651Z,99170.32
2019-01-29T08:30:46.844Z,99163.03
2019-01-29T08:33:16.138Z,99166.91
2019-01-29T08:35:45.444Z,99171.31
2019-01-29T08:38:14.915Z,99165.42
2019-01-29T08:40:44.182Z,99166.36
2019-01-29T08:43:13.429Z,99165.64
2019-01-29T08:45:42.621Z,99170.04
2019-01-29T08:48:11.818Z,99170.04
2019-01-29T08:50:41.048Z,99166.63
2019-01-29T08:53:10.249Z,99168.75
2019-01-29T08:55:39.599Z,99171.85
2019-01-29T08:58:08.858Z,99173.31
2019-01-29T09:00:38.078Z,99037.10
2019-01-29T09:03:07.279Z,99173.58
2019-01-29T09:05:36.632Z,99175.85
2019-01-29T09:08:06.332Z,99183.66
2019-01-29T09:10:35.712Z,99186.81
2019-01-29T09:13:05.054Z,99192.45
2019-01-29T09:15:34.241Z,99195.52
2019-01-29T09:18:03.440Z,99199.75
2019-01-29T09:20:32.726Z,99200.87
2019-01-29T09:23:01.994Z,99199.48
2019-01-29T09:25:31.186Z,99199.95
2019-01-29T09:28:00.409Z,99203.63
2019-01-29T09:30:29.627Z,99204.55
2019-01-29T09:32:58.914Z,99206.27
2019-01-29T09:35:28.181Z,99206.21
2019-01-29T09:37:57.389Z,99213.91
2019-01-29T09:40:26.709Z,99210.80
2019-01-29T09:42:55.947Z,99205.48
2019-01-29T09:45:25.248Z,99213.34
2019-01-29T09:47:56.721Z,99214.33
2019-01-29T09:50:26.082Z,99216.39
2019-01-29T09:52:55.215Z,99208.22
2019-01-29T09:55:29.471Z,99208.99
2019-01-29T09:57:56.123Z,99212.45
2019-01-29T10:00:28.000Z,99208.27
2019-01-29T10:02:57.215Z,99209.10
2019-01-29T10:05:27.319Z,99212.70
2019-01-29T10:07:56.537Z,99215.27
2019-01-29T10:10:25.738Z,99218.92
2019-01-29T10:12:55.154Z,99223.45
2019-01-29T10:15:29.919Z,99223.75
2019-01-29T10:17:59.239Z,99224.16
2019-01-29T10:20:28.974Z,99224.05
2019-01-29T10:22:58.217Z,99225.64
2019-01-29T10:25:27.451Z,99229.70
2019-01-29T10:27:56.743Z,99236.81
2019-01-29T10:30:27.521Z,99233.70
2019-01-29T10:32:56.752Z,99239.28
2019-01-29T10:35:27.704Z,99237.16
2019-01-29T10:37:57.040Z,99240.86
2019-01-29T10:40:27.005Z,99238.93
2019-01-29T10:42:56.738Z,99240.34
2019-01-29T10:45:27.736Z,99241.51
2019-01-29T10:47:57.044Z,99244.79
2019-01-29T10:50:27.435Z,99252.23
2019-01-29T10:52:57.625Z,99258.27
2019-01-29T10:55:27.119Z,99253.33
2019-01-29T10:57:56.324Z,99253.80
2019-01-29T11:00:28.263Z,99255.69
2019-01-29T11:02:57.565Z,99252.47
2019-01-29T11:05:26.787Z,99250.48
2019-01-29T11:07:56.082Z,99108.17
2019-01-29T11:10:25.684Z,99254.41
2019-01-29T11:12:54.991Z,99255.17
2019-01-29T11:15:27.154Z,99263.02
2019-01-29T11:17:57.083Z,99256.80
2019-01-29T11:20:26.373Z,99259.95
2019-01-29T11:22:55.558Z,99258.22
2019-01-29T11:25:26.643Z,99262.00
2019-01-29T11:27:55.852Z,99258.28
2019-01-29T11:30:27.268Z,99260.55
2019-01-29T11:32:56.621Z,99263.02
2019-01-29T11:35:26.006Z,99262.22
2019-01-29T11:37:55.373Z,99271.25
2019-01-29T11:40:26.359Z,99267.80
2019-01-29T11:42:55.669Z,99267.20
2019-01-29T11:45:33.616Z,99278.80
2019-01-29T11:48:02.852Z,99279.75
2019-01-29T11:50:32.053Z,99286.13
2019-01-29T11:53:01.369Z,99279.41
2019-01-29T11:55:31.447Z,99282.05
2019-01-29T11:58:00.653Z,99288.50
2019-01-29T12:00:55.393Z,99280.91
2019-01-29T12:03:24.649Z,99282.39
2019-01-29T12:05:53.956Z,99281.98
2019-01-29T12:08:23.719Z,99283.95
2019-01-29T12:10:53.066Z,99287.48
2019-01-29T12:13:22.413Z,99285.03
2019-01-29T12:15:51.662Z,99287.41
2019-01-29T12:18:20.905Z,99288.89
2019-01-29T12:20:50.116Z,99286.58
2019-01-29T12:23:19.344Z,99295.88
2019-01-29T12:25:48.905Z,99301.44
2019-01-29T12:28:18.103Z,99300.02
2019-01-29T12:30:47.370Z,99298.25
2019-01-29T12:33:17.057Z,99302.45
2019-01-29T12:35:46.260Z,99315.14
2019-01-29T12:38:15.816Z,99305.97
2019-01-29T12:40:45.033Z,99321.17
2019-01-29T12:43:14.268Z,99310.52
2019-01-29T12:45:43.491Z,99310.23
2019-01-29T12:48:12.704Z,99313.77
2019-01-29T12:50:47.445Z,99319.86
2019-01-29T12:53:18.795Z,99315.59
2019-01-29T12:55:48.014Z,99316.13
2019-01-29T12:58:17.260Z,99315.72
2019-01-29T13:00:55.049Z,99316.19
2019-01-29T13:03:24.595Z,99322.70
2019-01-29T13:05:53.935Z,99320.06
2019-01-29T13:08:23.111Z,99329.77
2019-01-29T13:10:52.369Z,99333.17
2019-01-29T13:13:21.852Z,99339.61
2019-01-29T13:15:51.136Z,99334.52
2019-01-29T13:18:20.503Z,99340.09
2019-01-29T13:20:49.702Z,99354.21
2019-01-29T13:23:18.925Z,99359.70
2019-01-29T13:25:48.181Z,99348.58
2019-01-29T13:28:17.396Z,99343.70
2019-01-29T13:30:46.602Z,99345.86
2019-01-29T13:33:16.132Z,99348.38
2019-01-29T13:35:45.783Z,99347.56
2019-01-29T13:38:15.079Z,99351.09
2019-01-29T13:40:44.315Z,99353.73
2019-01-29T13:43:13.604Z,99345.86
2019-01-29T13:45:43.008Z,99352.45
2019-01-29T13:48:12.261Z,99357.20
2019-01-29T13:50:48.185Z,99356.86
2019-01-29T13:53:17.424Z,99357.27
2019-01-29T13:55:46.650Z,99357.67
2019-01-29T13:58:15.957Z,99360.72
2019-01-29T14:00:45.253Z,99367.17
2019-01-29T14:03:14.464Z,99367.64
2019-01-29T14:05:43.934Z,99364.66
2019-01-29T14:08:13.196Z,99365.54
2019-01-29T14:10:42.384Z,99373.69
2019-01-29T14:13:11.681Z,99370.22
2019-01-29T14:15:44.208Z,99374.09
2019-01-29T14:18:14.345Z,99375.38
2019-01-29T14:20:44.863Z,99379.59
2019-01-29T14:23:14.198Z,99376.47
2019-01-29T14:25:43.534Z,99381.16
2019-01-29T14:28:12.762Z,99385.91
2019-01-29T14:30:42.123Z,99387.20
2019-01-29T14:33:11.333Z,99390.18
2019-01-29T14:35:40.623Z,99387.53
2019-01-29T14:38:51.002Z,99399.95
2019-01-29T14:41:21.687Z,99394.66
2019-01-29T14:43:56.311Z,99398.05
2019-01-29T14:46:25.478Z,99400.56
2019-01-29T14:48:54.685Z,99395.81
2019-01-29T14:51:23.969Z,99397.44
2019-01-29T14:53:53.173Z,99397.38
2019-01-29T14:56:22.812Z,99402.46
2019-01-29T14:58:52.025Z,99402.39
2019-01-29T15:01:22.260Z,99406.13
2019-01-29T15:03:51.480Z,99401.38
2019-01-29T15:06:21.198Z,99408.70
2019-01-29T15:08:50.422Z,99409.04
2019-01-29T15:11:19.610Z,99408.09
2019-01-29T15:13:48.895Z,99404.89
2019-01-29T15:16:32.818Z,99407.81
2019-01-29T15:19:06.356Z,99414.19
2019-01-29T15:21:37.898Z,99412.08
2019-01-29T15:24:06.928Z,99415.41
2019-01-29T15:26:36.170Z,99414.52
2019-01-29T15:29:05.497Z,99416.28
2019-01-29T15:31:35.592Z,99417.91
2019-01-29T15:34:05.280Z,99415.19
2019-01-29T15:36:34.478Z,99424.62
2019-01-29T15:39:05.544Z,99416.75
2019-01-29T15:41:34.775Z,99417.48
2019-01-29T15:44:06.287Z,99419.59
2019-01-29T15:46:35.547Z,99423.05
2019-01-29T15:49:04.885Z,99419.05
2019-01-29T15:51:34.153Z,99423.39
2019-01-29T15:54:03.456Z,99429.83
2019-01-29T15:56:32.675Z,99430.97
2019-01-29T15:59:02.045Z,99432.05
2019-01-29T16:01:31.229Z,99432.13
2019-01-29T16:04:01.541Z,99435.17
2019-01-29T16:06:30.832Z,99435.10
2019-01-29T16:09:00.017Z,99443.64
2019-01-29T16:11:29.386Z,99446.22
2019-01-29T16:13:58.555Z,99447.91
2019-01-29T16:16:27.810Z,99446.48
2019-01-29T16:18:57.057Z,99460.25
2019-01-29T16:21:26.392Z,99453.73
2019-01-29T16:23:55.576Z,99461.06
2019-01-29T16:26:24.801Z,99464.52
2019-01-29T16:28:54.013Z,99465.73
2019-01-29T16:31:23.282Z,99468.31
2019-01-29T16:33:52.530Z,99474.27
2019-01-29T16:36:21.750Z,99470.89
2019-01-29T16:38:50.933Z,99472.58
2019-01-29T16:41:20.667Z,99472.98
2019-01-29T16:43:49.864Z,99477.22
2019-01-29T16:46:19.141Z,99475.92
2019-01-29T16:48:48.374Z,99473.20
2019-01-29T16:51:17.715Z,99480.94
2019-01-29T16:53:46.947Z,99478.36
2019-01-29T16:56:16.200Z,99485.13
2019-01-29T16:58:45.461Z,99483.84
2019-01-29T17:01:15.104Z,99488.11
2019-01-29T17:03:44.379Z,99493.19
2019-01-29T17:06:13.569Z,99500.44
2019-01-29T17:08:42.751Z,99499.16
2019-01-29T17:11:12.026Z,99496.98
2019-01-29T17:13:41.247Z,99496.58
2019-01-29T17:16:10.478Z,99496.17
2019-01-29T17:18:39.801Z,99498.34
2019-01-29T17:21:09.088Z,99499.96
2019-01-29T17:23:38.434Z,99499.00
2019-01-29T17:26:08.474Z,99505.44
2019-01-29T17:28:37.904Z,99502.06
2019-01-29T17:31:12.314Z,99497.49
2019-01-29T17:33:46.129Z,99502.90
2019-01-29T17:36:22.908Z,99508.38
2019-01-29T17:38:52.282Z,99503.63
2019-01-29T17:41:25.588Z,99507.42
2019-01-29T17:43:57.797Z,99509.04
2019-01-29T17:46:31.695Z,99513.63
2019-01-29T17:49:02.143Z,99512.27
2019-01-29T17:51:34.493Z,99520.40
2019-01-29T17:54:03.791Z,99525.14
2019-01-29T17:56:33.451Z,99530.22
2019-01-29T17:59:02.743Z,99534.89
2019-01-29T18:01:33.169Z,99536.58
2019-01-29T18:04:02.506Z,99542.46
2019-01-29T18:06:33.531Z,99542.79
2019-01-29T18:09:04.634Z,99545.44
2019-01-29T18:11:33.855Z,99544.48
2019-01-29T18:14:03.482Z,99550.03
2019-01-29T18:16:32.801Z,99544.88
2019-01-29T18:19:03.584Z,99547.78
2019-01-29T18:21:32.924Z,99549.47
2019-01-29T18:24:02.306Z,99553.19
2019-01-29T18:26:31.543Z,99548.84
2019-01-29T18:29:03.954Z,99555.52
2019-01-29T18:31:33.256Z,99553.68
2019-01-29T18:34:02.601Z,99551.58
2019-01-29T18:36:31.948Z,99554.56
2019-01-29T18:39:01.207Z,99557.95
2019-01-29T18:41:30.718Z,99556.25
2019-01-29T18:43:59.962Z,99558.34
2019-01-29T18:46:29.490Z,99561.25
2019-01-29T18:48:58.688Z,99565.59
2019-01-29T18:51:30.277Z,99563.74
2019-01-29T18:53:59.519Z,99568.41
2019-01-29T18:56:29.515Z,99571.46
2019-01-29T18:59:00.051Z,99574.36
2019-01-29T19:01:29.684Z,99577.34
2019-01-29T19:03:59.156Z,99571.79
2019-01-29T19:06:29.498Z,99576.86
2019-01-29T19:08:58.791Z,99588.52
2019-01-29T19:11:28.002Z,99589.33
2019-01-29T19:14:00.008Z,99593.59
2019-01-29T19:16:32.235Z,99595.44
2019-01-29T19:19:01.582Z,99593.19
2019-01-29T19:21:32.104Z,99594.39
2019-01-29T19:24:01.346Z,99597.29
2019-01-29T19:26:30.799Z,99600.51
2019-01-29T19:29:00.925Z,99600.67
2019-01-29T19:31:30.130Z,99602.77
2019-01-29T19:34:11.074Z,99601.47
2019-01-29T19:36:41.326Z,99601.88
2019-01-29T19:39:16.413Z,99602.28
2019-01-29T19:41:49.126Z,99608.23
2019-01-29T19:44:26.598Z,99612.25
2019-01-29T19:46:58.567Z,99616.02
2019-01-29T19:49:39.750Z,99616.83
2019-01-29T19:52:20.320Z,99622.54
2019-01-29T19:54:55.770Z,99625.11
2019-01-29T19:57:25.132Z,99623.34
2019-01-29T19:59:54.995Z,99625.67
2019-01-29T20:02:24.443Z,99626.80
2019-01-29T20:04:57.086Z,99629.05
2019-01-29T20:07:26.299Z,99634.20
2019-01-29T20:09:55.550Z,99636.04
2019-01-29T20:12:24.752Z,99639.81
2019-01-29T20:14:54.024Z,99639.08
2019-01-29T20:17:23.327Z,99648.89
2019-01-29T20:19:52.596Z,99650.09
2019-01-29T20:22:21.827Z,99651.78
2019-01-29T20:24:51.054Z,99658.20
2019-01-29T20:27:20.342Z,99657.41
2019-01-29T20:29:49.937Z,99658.69
2019-01-29T20:32:19.158Z,99659.89
2019-01-29T20:34:48.381Z,99665.52
2019-01-29T20:37:19.991Z,99676.13
2019-01-29T20:39:49.230Z,99679.98
2019-01-29T20:42:18.446Z,99683.53
2019-01-29T20:44:50.312Z,99682.48
2019-01-29T20:47:20.731Z,99688.08
2019-01-29T20:49:50.661Z,99690.31
2019-01-29T20:52:20.072Z,99697.86
2019-01-29T20:54:49.412Z,99695.52
2019-01-29T20:57:18.628Z,99692.38
2019-01-29T20:59:47.843Z,99701.38
2019-01-29T21:02:17.110Z,99703.45
2019-01-29T21:04:46.443Z,99708.11
2019-01-29T21:07:16.082Z,99707.94
2019-01-29T21:09:45.353Z,99710.34
2019-01-29T21:12:14.607Z,99712.02
2019-01-29T21:14:43.799Z,99715.30
2019-01-29T21:17:13.109Z,99717.39
2019-01-29T21:19:42.506Z,99719.87
2019-01-29T21:22:11.659Z,99717.52
2019-01-29T21:24:41.007Z,99734.55
2019-01-29T21:27:10.222Z,99723.20
2019-01-29T21:29:39.721Z,99731.31
2019-01-29T21:32:12.148Z,99726.97
2019-01-29T21:34:41.405Z,99732.02
2019-01-29T21:37:10.648Z,99731.05
2019-01-29T21:39:39.925Z,99737.30
2019-01-29T21:42:09.145Z,99740.88
2019-01-29T21:44:38.341Z,99741.59
2019-01-29T21:47:07.794Z,99748.41
2019-01-29T21:49:37.420Z,99745.75
2019-01-29T21:52:07.041Z,99754.17
2019-01-29T21:54:36.429Z,99757.14
2019-01-29T21:57:05.742Z,99762.09
2019-01-29T21:59:34.946Z,99759.74
2019-01-29T22:02:04.315Z,99764.70
2019-01-29T22:04:36.238Z,99764.22
2019-01-29T22:07:05.848Z,99767.67
2019-01-29T22:09:35.146Z,99766.30
2019-01-29T22:12:04.354Z,99767.88
2019-01-29T22:14:33.617Z,99763.36
2019-01-29T22:17:02.877Z,99772.26
2019-01-29T22:19:32.122Z,99779.38
2019-01-29T22:22:01.331Z,99779.87
2019-01-29T22:24:30.704Z,99780.27
2019-01-29T22:26:59.872Z,99780.36
2019-01-29T22:29:29.068Z,99777.30
2019-01-29T22:31:58.450Z,99783.23
2019-01-29T22:34:27.669Z,99782.66
2019-01-29T22:36:57.164Z,99787.12
2019-01-29T22:39:26.416Z,99788.89
2019-01-29T22:41:55.687Z,99784.86
2019-01-29T22:44:25.048Z,99784.06
2019-01-29T22:46:54.382Z,99791.86
2019-01-29T22:49:23.571Z,99787.02
2019-01-29T22:51:52.776Z,99791.37
2019-01-29T22:54:22.039Z,99794.55
2019-01-29T22:56:51.229Z,99794.84
2019-01-29T22:59:20.440Z,99798.52
2019-01-29T23:01:49.685Z,99800.20
2019-01-29T23:04:24.831Z,99800.89
2019-01-29T23:07:06.564Z,99797.74
2019-01-29T23:09:35.858Z,99801.80
2019-01-29T23:12:05.551Z,99806.14
2019-01-29T23:14:34.852Z,99806.94
2019-01-29T23:17:04.156Z,99809.11
2019-01-29T23:19:33.361Z,99810.79
2019-01-29T23:22:02.807Z,99818.00
2019-01-29T23:24:31.982Z,99815.44
2019-01-29T23:27:01.178Z,99816.23
2019-01-29T23:29:30.439Z,99815.25
2019-01-29T23:31:59.725Z,99815.45
2019-01-29T23:34:29.025Z,99823.55
2019-01-29T23:36:58.258Z,99818.23
2019-01-29T23:39:27.459Z,99816.16
2019-01-29T23:41:56.695Z,99817.34
2019-01-29T23:44:25.934Z,99820.70
2019-01-29T23:46:55.176Z,99793.00
2019-01-29T23:49:24.379Z,99817.84
2019-01-29T23:51:53.599Z,99823.58
2019-01-29T23:54:22.791Z,99823.19
2019-01-29T23:56:51.974Z,99823.09
2019-01-29T23:59:21.243Z,99831.28
